SPPAC EPLS-EPPB
Flight info
| Callsign | SPPAC |
|---|---|
| Flight time | 0h 26m |
| Altitude | 5000 |
| Route | EPLSS DCT EPPOK |
| Aircraft | P750/L-SDGRY/S |
Departure
| Time | 2026-04-21 18:39 |
|---|---|
| Airport | Leszno-Strzyzewice Airfield (EPLS) |
Arrival
| Time | 2026-04-21 19:06 |
|---|---|
| Airport | Poznań-Bednary Airfield (EPPB) |
| Time | Latitude | Longitude | Altitude | Speed | Heading |
|---|---|---|---|---|---|
| 2026-04-21 18:20 | 51.83222 | 16.53058 | 312 ft | 0 kts | 165° |
| 2026-04-21 18:34 | 51.83221 | 16.53058 | 312 ft | 0 kts | 165° |
| 2026-04-21 18:35 | 51.83222 | 16.53058 | 312 ft | 1 kts | 166° |
| 2026-04-21 18:35 | 51.83244 | 16.53063 | 312 ft | 9 kts | 9° |
| 2026-04-21 18:35 | 51.83321 | 16.53067 | 310 ft | 11 kts | 349° |
| 2026-04-21 18:35 | 51.83397 | 16.53042 | 307 ft | 11 kts | 347° |
| 2026-04-21 18:36 | 51.83479 | 16.53006 | 303 ft | 13 kts | 341° |
| 2026-04-21 18:36 | 51.83555 | 16.52935 | 299 ft | 4 kts | 327° |
| 2026-04-21 18:36 | 51.83555 | 16.52934 | 299 ft | 0 kts | 327° |
| 2026-04-21 18:38 | 51.83574 | 16.52912 | 302 ft | 14 kts | 315° |
| 2026-04-21 18:38 | 51.83570 | 16.52817 | 302 ft | 14 kts | 231° |
| 2026-04-21 18:38 | 51.83560 | 16.52795 | 302 ft | 0 kts | 234° |
| 2026-04-21 18:39 | 51.83370 | 16.52367 | 301 ft | 96 kts | 234° |
| 2026-04-21 18:39 | 51.82800 | 16.51113 | 769 ft | 104 kts | 235° |
| 2026-04-21 18:39 | 51.82489 | 16.50481 | 1067 ft | 109 kts | 233° |
| 2026-04-21 18:39 | 51.82275 | 16.49021 | 1569 ft | 102 kts | 309° |
| 2026-04-21 18:40 | 51.82674 | 16.48703 | 1726 ft | 102 kts | 4° |
| 2026-04-21 18:40 | 51.83360 | 16.49066 | 2042 ft | 100 kts | 22° |
| 2026-04-21 18:40 | 51.83955 | 16.49515 | 2527 ft | 87 kts | 28° |
| 2026-04-21 18:40 | 51.84471 | 16.50072 | 2862 ft | 96 kts | 38° |
| 2026-04-21 18:41 | 51.84978 | 16.50824 | 3139 ft | 101 kts | 39° |
| 2026-04-21 18:41 | 51.85499 | 16.51598 | 3452 ft | 103 kts | 42° |
| 2026-04-21 18:41 | 51.86030 | 16.52420 | 3702 ft | 107 kts | 39° |
| 2026-04-21 18:41 | 51.86589 | 16.53196 | 4031 ft | 105 kts | 38° |
| 2026-04-21 18:42 | 51.87145 | 16.53966 | 4328 ft | 104 kts | 35° |
| 2026-04-21 18:42 | 51.87772 | 16.54441 | 4633 ft | 105 kts | 22° |
| 2026-04-21 18:42 | 51.88465 | 16.54968 | 4779 ft | 115 kts | 28° |
| 2026-04-21 18:42 | 51.89200 | 16.55550 | 4835 ft | 126 kts | 20° |
| 2026-04-21 18:43 | 51.90082 | 16.56049 | 4663 ft | 139 kts | 19° |
| 2026-04-21 18:43 | 51.90962 | 16.56548 | 4811 ft | 129 kts | 19° |
| 2026-04-21 18:43 | 51.91782 | 16.57043 | 4998 ft | 124 kts | 26° |
| 2026-04-21 18:43 | 51.92465 | 16.57971 | 4992 ft | 131 kts | 40° |
| 2026-04-21 18:44 | 51.93153 | 16.58958 | 5006 ft | 133 kts | 39° |
| 2026-04-21 18:44 | 51.93847 | 16.59955 | 5003 ft | 134 kts | 39° |
| 2026-04-21 18:44 | 51.94538 | 16.60949 | 5006 ft | 135 kts | 39° |
| 2026-04-21 18:44 | 51.95239 | 16.61956 | 5008 ft | 135 kts | 39° |
| 2026-04-21 18:45 | 51.95939 | 16.62963 | 5003 ft | 135 kts | 39° |
| 2026-04-21 18:45 | 51.96644 | 16.63978 | 5002 ft | 135 kts | 39° |
| 2026-04-21 18:45 | 51.97348 | 16.64992 | 5006 ft | 135 kts | 39° |
| 2026-04-21 18:45 | 51.98051 | 16.66004 | 5011 ft | 135 kts | 39° |
| 2026-04-21 18:46 | 51.98753 | 16.67016 | 5001 ft | 135 kts | 39° |
| 2026-04-21 18:46 | 51.99457 | 16.68031 | 5005 ft | 135 kts | 39° |
| 2026-04-21 18:46 | 52.00161 | 16.69046 | 5006 ft | 135 kts | 39° |
| 2026-04-21 18:46 | 52.00864 | 16.70058 | 5001 ft | 135 kts | 39° |
| 2026-04-21 18:47 | 52.01564 | 16.71071 | 5015 ft | 135 kts | 39° |
| 2026-04-21 18:47 | 52.02264 | 16.72081 | 5008 ft | 135 kts | 39° |
| 2026-04-21 18:47 | 52.02964 | 16.73093 | 5007 ft | 135 kts | 39° |
| 2026-04-21 18:47 | 52.03665 | 16.74106 | 5007 ft | 135 kts | 39° |
| 2026-04-21 18:48 | 52.04367 | 16.75120 | 5008 ft | 135 kts | 39° |
| 2026-04-21 18:48 | 52.05069 | 16.76134 | 5004 ft | 135 kts | 39° |
| 2026-04-21 18:48 | 52.05758 | 16.77134 | 5011 ft | 133 kts | 39° |
| 2026-04-21 18:48 | 52.06449 | 16.78134 | 5016 ft | 133 kts | 40° |
| 2026-04-21 18:49 | 52.07139 | 16.79132 | 5007 ft | 133 kts | 40° |
| 2026-04-21 18:49 | 52.07828 | 16.80132 | 5005 ft | 133 kts | 40° |
| 2026-04-21 18:49 | 52.08295 | 16.80808 | 5005 ft | 133 kts | 40° |
| 2026-04-21 18:49 | 52.09208 | 16.82131 | 5004 ft | 132 kts | 40° |
| 2026-04-21 18:50 | 52.09896 | 16.83131 | 5005 ft | 132 kts | 39° |
| 2026-04-21 18:50 | 52.10583 | 16.84129 | 5004 ft | 132 kts | 40° |
| 2026-04-21 18:50 | 52.11272 | 16.85126 | 5004 ft | 132 kts | 40° |
| 2026-04-21 18:50 | 52.11958 | 16.86125 | 5007 ft | 132 kts | 40° |
| 2026-04-21 18:51 | 52.12647 | 16.87126 | 5003 ft | 133 kts | 40° |
| 2026-04-21 18:51 | 52.13336 | 16.88127 | 5010 ft | 133 kts | 40° |
| 2026-04-21 18:51 | 52.14024 | 16.89128 | 5009 ft | 132 kts | 39° |
| 2026-04-21 18:51 | 52.14710 | 16.90127 | 5014 ft | 132 kts | 40° |
| 2026-04-21 18:52 | 52.15387 | 16.91111 | 5018 ft | 132 kts | 40° |
| 2026-04-21 18:52 | 52.16074 | 16.92112 | 5017 ft | 133 kts | 40° |
| 2026-04-21 18:52 | 52.16761 | 16.93116 | 5013 ft | 133 kts | 40° |
| 2026-04-21 18:52 | 52.17450 | 16.94118 | 5018 ft | 132 kts | 40° |
| 2026-04-21 18:53 | 52.18138 | 16.95121 | 5009 ft | 133 kts | 40° |
| 2026-04-21 18:53 | 52.18826 | 16.96125 | 5009 ft | 133 kts | 40° |
| 2026-04-21 18:53 | 52.19513 | 16.97129 | 5014 ft | 133 kts | 40° |
| 2026-04-21 18:53 | 52.20200 | 16.98132 | 5010 ft | 133 kts | 40° |
| 2026-04-21 18:54 | 52.20888 | 16.99137 | 5023 ft | 133 kts | 40° |
| 2026-04-21 18:54 | 52.21573 | 17.00139 | 5027 ft | 133 kts | 40° |
| 2026-04-21 18:54 | 52.22265 | 17.01149 | 5004 ft | 134 kts | 40° |
| 2026-04-21 18:54 | 52.22960 | 17.02167 | 5004 ft | 134 kts | 40° |
| 2026-04-21 18:55 | 52.23422 | 17.02842 | 5001 ft | 134 kts | 40° |
| 2026-04-21 18:55 | 52.24354 | 17.04206 | 5002 ft | 135 kts | 40° |
| 2026-04-21 18:55 | 52.25041 | 17.05214 | 5003 ft | 135 kts | 40° |
| 2026-04-21 18:55 | 52.25739 | 17.06235 | 5001 ft | 135 kts | 40° |
| 2026-04-21 18:56 | 52.26435 | 17.07256 | 5000 ft | 134 kts | 40° |
| 2026-04-21 18:56 | 52.27130 | 17.08276 | 5001 ft | 134 kts | 40° |
| 2026-04-21 18:56 | 52.27825 | 17.09295 | 5001 ft | 134 kts | 40° |
| 2026-04-21 18:56 | 52.28520 | 17.10317 | 5001 ft | 134 kts | 40° |
| 2026-04-21 18:57 | 52.29215 | 17.11338 | 5003 ft | 134 kts | 40° |
| 2026-04-21 18:57 | 52.29912 | 17.12361 | 5003 ft | 134 kts | 40° |
| 2026-04-21 18:57 | 52.30606 | 17.13382 | 5003 ft | 134 kts | 40° |
| 2026-04-21 18:57 | 52.31298 | 17.14399 | 5003 ft | 134 kts | 40° |
| 2026-04-21 18:58 | 52.31991 | 17.15419 | 5006 ft | 134 kts | 40° |
| 2026-04-21 18:58 | 52.32686 | 17.16441 | 5006 ft | 134 kts | 40° |
| 2026-04-21 18:58 | 52.33485 | 17.17157 | 4994 ft | 133 kts | 12° |
| 2026-04-21 18:58 | 52.34407 | 17.17292 | 4997 ft | 133 kts | 7° |
| 2026-04-21 18:59 | 52.35318 | 17.17439 | 4999 ft | 133 kts | 6° |
| 2026-04-21 18:59 | 52.36241 | 17.17580 | 5001 ft | 133 kts | 7° |
| 2026-04-21 18:59 | 52.37163 | 17.17718 | 5002 ft | 133 kts | 7° |
| 2026-04-21 18:59 | 52.38086 | 17.17858 | 5002 ft | 133 kts | 6° |
| 2026-04-21 19:00 | 52.39010 | 17.17999 | 5018 ft | 133 kts | 6° |
| 2026-04-21 19:00 | 52.39934 | 17.18136 | 5002 ft | 133 kts | 7° |
| 2026-04-21 19:00 | 52.40857 | 17.18277 | 5002 ft | 133 kts | 7° |
| 2026-04-21 19:00 | 52.41781 | 17.18419 | 5002 ft | 133 kts | 7° |
| 2026-04-21 19:01 | 52.42705 | 17.18558 | 4996 ft | 134 kts | 7° |
| 2026-04-21 19:01 | 52.43665 | 17.18704 | 4766 ft | 144 kts | 7° |
| 2026-04-21 19:01 | 52.44549 | 17.18837 | 4394 ft | 114 kts | 7° |
| 2026-04-21 19:01 | 52.45291 | 17.18951 | 3989 ft | 102 kts | 8° |
| 2026-04-21 19:02 | 52.45989 | 17.19058 | 3599 ft | 100 kts | 8° |
| 2026-04-21 19:02 | 52.46672 | 17.19162 | 3222 ft | 98 kts | 9° |
| 2026-04-21 19:02 | 52.47342 | 17.19262 | 2856 ft | 95 kts | 9° |
| 2026-04-21 19:02 | 52.47995 | 17.19362 | 2496 ft | 93 kts | 9° |
| 2026-04-21 19:03 | 52.48632 | 17.19459 | 2136 ft | 91 kts | 10° |
| 2026-04-21 19:03 | 52.49261 | 17.19555 | 1766 ft | 90 kts | 11° |
| 2026-04-21 19:03 | 52.49918 | 17.19657 | 1409 ft | 101 kts | 9° |
| 2026-04-21 19:03 | 52.50589 | 17.19754 | 1327 ft | 94 kts | 9° |
| 2026-04-21 19:04 | 52.51229 | 17.19851 | 1226 ft | 91 kts | 9° |
| 2026-04-21 19:04 | 52.51835 | 17.19770 | 1243 ft | 89 kts | 340° |
| 2026-04-21 19:04 | 52.52277 | 17.19054 | 1278 ft | 94 kts | 319° |
| 2026-04-21 19:04 | 52.52678 | 17.18190 | 1285 ft | 97 kts | 311° |
| 2026-04-21 19:05 | 52.53140 | 17.17646 | 1283 ft | 82 kts | 15° |
| 2026-04-21 19:05 | 52.53674 | 17.18111 | 1127 ft | 91 kts | 38° |
| 2026-04-21 19:05 | 52.53914 | 17.18907 | 844 ft | 83 kts | 96° |
| 2026-04-21 19:05 | 52.53749 | 17.19845 | 491 ft | 86 kts | 102° |
| 2026-04-21 19:06 | 52.53614 | 17.20738 | 373 ft | 72 kts | 105° |
| 2026-04-21 19:06 | 52.53512 | 17.21374 | 363 ft | 48 kts | 105° |
| 2026-04-21 19:06 | 52.53432 | 17.21836 | 361 ft | 37 kts | 108° |
| 2026-04-21 19:06 | 52.53385 | 17.22118 | 362 ft | 0 kts | 98° |
| 2026-04-21 19:07 | 52.53386 | 17.22126 | 361 ft | 5 kts | 77° |
| 2026-04-21 19:07 | 52.53412 | 17.22026 | 362 ft | 24 kts | 278° |
| 2026-04-21 19:07 | 52.53452 | 17.21750 | 359 ft | 8 kts | 264° |
| 2026-04-21 19:07 | 52.53389 | 17.21719 | 360 ft | 18 kts | 196° |
| 2026-04-21 19:08 | 52.53327 | 17.21692 | 361 ft | 0 kts | 191° |
| 2026-04-21 19:10 | 52.53313 | 17.21671 | 364 ft | 18 kts | 246° |
| 2026-04-21 19:10 | 52.53339 | 17.21473 | 361 ft | 20 kts | 284° |
| 2026-04-21 19:10 | 52.53387 | 17.21182 | 361 ft | 32 kts | 285° |
| 2026-04-21 19:10 | 52.53444 | 17.20827 | 362 ft | 32 kts | 284° |
| 2026-04-21 19:11 | 52.53491 | 17.20532 | 366 ft | 17 kts | 285° |
| 2026-04-21 19:11 | 52.53467 | 17.20438 | 362 ft | 10 kts | 191° |
| 2026-04-21 19:11 | 52.53462 | 17.20436 | 362 ft | 0 kts | 191° |